Annapolis Junction, Maryland
Current Conditions -  °F | °C
As of 1:27 AM on Tuesday 21 Oct 2014 (Local Time) from KFME Reporting Station
Overcast Overcast  
Wind Chill: 10°   Ceiling: 7500
Heat Index: 10°   Visibility: 10mi
Dew Point:   Wind: 0mph
Humidity: 94%   Direction: NA
Pressure: 29.94"   Gusts: NA
Location:  39.13°N, 76.8°W
Report Text: KFME 210527Z AUTO 00000KT 10SM SCT065 BKN075 OVC085 10/09 A2994 RMK AO1
Loading
Personal Weather Stations






























Interactive Weather Map
Tropical Storm Tracking
New forecast layout! Learn more

10-Day Weather Forecast

Advertisements
Track Severe Weather on mobile